• Join FlightAware (Why Join?)
  • Login
  • US Flag 
03:16PM EDT


 

Airport Tracker/Info


-or-


 

Live Flight TrackerFlight Track Log ✈ EJM53 ✈ 06-Jul-2013 ✈ KACK - PAJN / JNU

Flight Track Log - Related Links

Times and Time Zones

All times are in EDT time to prevent confusion due to time zone crossing. See the EJM53 flight status page for this flight to view local times or setup timezone preferences in your user account.

Time Position Orientation Groundspeed Altitude Reporting Facility
EDT Latitude Longitude Course Direction KTS MPH feet Rate Location/Type
10:43AM 41.2717 -70.2058 287° West 227 261 5,100  Level Boston Center
10:43AM 41.2717 -70.2058 287° West 227 261 5,100 3,060 Level Boston Center
10:44AM 41.3364 -70.2089 358° North 222 255 8,200 3,060 Climbing Boston Center
10:44AM 41.3364 -70.2089 358° North 222 255 8,200 2,400 Level Boston Center
10:45AM 41.4131 -70.1953 North 246 283 10,600 2,400 Climbing Boston Center
10:45AM 41.4131 -70.1953 North 246 283 10,600 2,160 Level Boston Center
10:46AM 41.4939 -70.1758 10° North 267 307 12,800 2,160 Climbing Boston Center
10:46AM 41.4939 -70.1758 10° North 267 307 12,800 1,980 Level Boston Center
10:47AM 41.9797 -70.0333 North  Level FlightAware Approximate
10:47AM 41.9797 -70.0333 North  Level FlightAware Approximate
10:47AM 41.5833 -70.1531 11° North 300 345 14,800  Level Boston Center
10:47AM 41.5833 -70.1531 11° North 300 345 14,800 1,980 Level Boston Center
10:48AM 42.0410 -70.1427 287° West  Level FlightAware Approximate
10:48AM 42.0410 -70.1427 287° West  Level FlightAware Approximate
10:48AM 41.6767 -70.1303 10° North 319 367 16,800  Level Boston Center
10:48AM 41.6767 -70.1303 10° North 319 367 16,800 1,860 Level Boston Center
10:49AM 41.7739 -70.1044 11° North 338 389 18,700 1,860 Climbing Boston Center
10:49AM 41.7739 -70.1044 11° North 338 389 18,700 1,980 Level Boston Center
10:50AM 41.8672 -70.0789 12° North 343 395 20,700 1,980 Climbing Boston Center
10:50AM 41.8672 -70.0789 12° North 343 395 20,700 1,320 Level Boston Center
10:51AM 41.9625 -70.0528 12° North 343 395 22,300 1,320 Climbing Boston Center
10:51AM 41.9625 -70.0528 12° North 343 395 22,300 1,800 Level Boston Center
10:52AM 42.0478 -70.1447 321° Northwest 297 342 24,100 1,800 Climbing Boston Center
10:52AM 42.0478 -70.1447 321° Northwest 297 342 24,100 1,500 Level Boston Center
10:53AM 42.0753 -70.2639 287° West 299 344 25,600 1,500 Climbing Boston Center
10:53AM 42.0753 -70.2639 287° West 299 344 25,600 1,380 Level Boston Center
10:54AM 42.0778 -70.3953 272° West 304 350 27,000 1,380 Climbing Boston Center
10:54AM 42.0778 -70.3953 272° West 304 350 27,000 1,080 Level Boston Center
10:55AM 42.0800 -70.5211 271° West 323 372 28,100 1,080 Climbing Boston Center
10:55AM 42.0800 -70.5211 271° West 323 372 28,100 960 Level Boston Center
10:56AM 42.0819 -70.6497 271° West 336 387 29,100 960 Climbing Boston Center
10:56AM 42.0819 -70.6497 271° West 336 387 29,100 960 Level Boston Center
10:57AM 42.0839 -70.7814 271° West 348 400 30,100 960 Climbing Boston Center
10:57AM 42.0839 -70.7814 271° West 348 400 30,100 900 Level Boston Center
10:58AM 42.0881 -70.9211 272° West 361 415 31,000 900 Climbing Boston Center
10:58AM 42.0881 -70.9211 272° West 361 415 31,000 780 Level Boston Center
10:59AM 42.0875 -71.0525 270° West 366 421 31,800 780 Climbing Boston Center
10:59AM 42.0875 -71.0525 270° West 366 421 31,800 780 Level Boston Center
11:00AM 42.0914 -71.1894 272° West 366 421 32,600 780 Climbing Boston Center
11:00AM 42.0914 -71.1894 272° West 366 421 32,600 780 Level Boston Center
11:01AM 42.0928 -71.3211 271° West 361 415 33,400 780 Climbing Boston Center
11:01AM 42.0928 -71.3211 271° West 361 415 33,400 480 Level Boston Center
11:02AM 42.0961 -71.4581 272° West 366 421 33,900 480 Climbing Boston Center
11:02AM 42.0961 -71.4581 272° West 366 421 33,900 480 Level Boston Center
11:03AM 42.0908 -71.5897 267° West 361 415 34,400 480 Climbing Boston Center
11:03AM 42.0908 -71.5897 267° West 361 415 34,400 480 Level Boston Center
11:04AM 42.0939 -71.7239 272° West 361 415 34,900 480 Climbing Boston Center
11:04AM 42.0939 -71.7239 272° West 361 415 34,900 480 Level Boston Center
11:05AM 42.1114 -71.8553 280° West 361 415 35,400 480 Climbing Boston Center
11:05AM 42.1114 -71.8553 280° West 361 415 35,400 600 Level Boston Center
11:06AM 42.1411 -71.9867 287° West 366 421 36,000 600 Climbing Boston Center
11:06AM 42.1411 -71.9867 287° West 366 421 36,000  Level Boston Center
11:07AM 42.1728 -72.1153 288° West 366 421 36,000  Level Boston Center
11:07AM 42.1728 -72.1153 288° West 366 421 36,000  Level Boston Center
11:08AM 42.2022 -72.2494 287° West 371 427 36,000  Level Boston Center
11:08AM 42.2022 -72.2494 287° West 371 427 36,000  Level Boston Center
11:09AM 42.2336 -72.3869 287° West 376 433 36,000  Level Boston Center
11:09AM 42.2336 -72.3869 287° West 376 433 36,000  Level Boston Center
11:10AM 42.2669 -72.5269 288° West 382 440 36,000  Level Boston Center
11:10AM 42.2669 -72.5269 288° West 382 440 36,000  Level Boston Center
11:11AM 42.3000 -72.6731 287° West 394 453 36,000  Level Boston Center
11:11AM 42.3000 -72.6731 287° West 394 453 36,000  Level Boston Center
11:12AM 42.3331 -72.8219 287° West 401 461 36,000  Level Boston Center
11:12AM 42.3331 -72.8219 287° West 401 461 36,000  Level Boston Center
11:13AM 42.3700 -72.9514 291° West 408 470 36,000  Level Boston Center
11:13AM 42.3700 -72.9514 291° West 408 470 36,000  Level Boston Center
11:14AM 42.4069 -73.0981 289° West 414 476 36,000  Level Boston Center
11:14AM 42.4069 -73.0981 289° West 414 476 36,000  Level Boston Center
11:15AM 42.4392 -73.2503 286° West 419 482 36,000  Level Boston Center
11:15AM 42.4392 -73.2503 286° West 419 482 36,000  Level Boston Center
11:16AM 42.4692 -73.4167 284° West 427 491 36,000  Level Boston Center
11:16AM 42.4692 -73.4167 284° West 427 491 36,000  Level Boston Center
11:17AM 42.5033 -73.5667 287° West 433 498 36,000  Level Boston Center
11:17AM 42.5033 -73.5667 287° West 433 498 36,000  Level Boston Center
11:18AM 42.5369 -73.7194 287° West 433 498 36,000  Level Boston Center
11:18AM 42.5369 -73.7194 287° West 433 498 36,000  Level Boston Center
11:19AM 42.5706 -73.8694 287° West 427 491 36,000  Level Boston Center
11:19AM 42.5706 -73.8694 287° West 427 491 36,000  Level Boston Center
11:20AM 42.6000 -74.0167 285° West 417 480 36,000  Level Boston Center
11:25AM 42.7667 -74.8167 286° West 400 460 36,000  Level Toronto Center
11:26AM 42.7883 -74.9100 288° West 417 480 36,000  Level Boston Center
11:27AM 42.8206 -75.0586 287° West 417 480 36,000  Level Boston Center
11:28AM 42.8503 -75.2072 285° West 417 480 36,000  Level Boston Center
11:29AM 42.8819 -75.3558 286° West 417 480 36,000  Level Boston Center
11:30AM 42.9114 -75.5106 285° West 417 480 36,000  Level Boston Center
11:31AM 42.9442 -75.6739 285° West 417 480 36,000  Level Boston Center
11:32AM 42.9753 -75.8231 286° West 417 480 36,000  Level Boston Center
11:33AM 43.0042 -75.9753 285° West 417 480 36,000  Level Boston Center
11:34AM 43.0347 -76.1247 286° West 417 480 36,000  Level Boston Center
11:36AM 43.0917 -76.4150 285° West 422 486 36,000  Level Cleveland Center
11:37AM 43.1200 -76.5639 285° West 417 480 36,000  Level Cleveland Center
11:38AM 43.1478 -76.7131 284° West 410 472 36,000  Level Cleveland Center
11:39AM 43.1758 -76.8650 284° West 410 472 36,000  Level Cleveland Center
11:40AM 43.2036 -77.0172 284° West 410 472 36,000  Level Cleveland Center
11:41AM 43.2331 -77.1694 285° West 410 472 36,000  Level Cleveland Center
11:42AM 43.2625 -77.3217 285° West 410 472 36,000  Level Cleveland Center
11:43AM 43.2917 -77.4714 285° West 410 472 36,000  Level Cleveland Center
11:44AM 43.3164 -77.6214 283° West 410 472 36,000  Level Cleveland Center
11:45AM 43.3453 -77.7714 285° West 410 472 36,000  Level Cleveland Center
11:46AM 43.3717 -77.9244 283° West 410 472 36,000  Level Cleveland Center
11:47AM 43.3981 -78.0775 283° West 410 472 36,000  Level Cleveland Center
11:48AM 43.4219 -78.2281 282° West 410 472 36,000  Level Cleveland Center
11:49AM 43.4500 -78.3786 284° West 410 472 36,000  Level Cleveland Center
11:50AM 43.4756 -78.5178 284° West 410 472 36,000  Level Cleveland Center
11:51AM 43.5181 -78.6939 288° West 410 472 36,000  Level Cleveland Center
11:52AM 43.5931 -78.8206 309° West 415 478 36,000  Level Cleveland Center
11:53AM 43.7000 -78.9667 315° West 430 495 36,000  Level Toronto Center
11:54AM 43.7667 -79.1000 305° West 430 495 36,000  Level Toronto Center
11:55AM 43.8500 -79.2167 315° West 420 483 36,000  Level Toronto Center
11:56AM 43.9333 -79.3333 315° West 430 495 36,000  Level Toronto Center
11:57AM 44.0000 -79.4667 305° West 430 495 36,000  Level Toronto Center
11:58AM 44.0833 -79.5833 315° West 430 495 36,000  Level Toronto Center
11:59AM 44.1667 -79.7000 315° West 430 495 36,000  Level Toronto Center
12:00PM 44.2500 -79.8500 308° West 430 495 36,000  Level Toronto Center
12:01PM 44.3167 -79.9667 309° West 420 483 36,000  Level Toronto Center
12:02PM 44.4000 -80.1000 311° West 430 495 36,000  Level Toronto Center
12:03PM 44.4667 -80.2167 309° West 430 495 36,000  Level Toronto Center
12:04PM 44.5500 -80.3333 315° West 430 495 36,000  Level Toronto Center
12:05PM 44.6333 -80.4833 308° West 420 483 36,000  Level Toronto Center
12:06PM 44.7000 -80.6000 309° West 420 483 36,000  Level Toronto Center
12:07PM 44.7833 -80.7167 315° West 420 483 36,000  Level Toronto Center
12:08PM 44.8500 -80.8333 309° West 420 483 36,000  Level Toronto Center
12:09PM 44.9167 -80.9667 305° West 420 483 36,000  Level Toronto Center
12:10PM 45.0000 -81.1000 311° West 420 483 36,000  Level Toronto Center
12:11PM 45.0833 -81.2167 315° West 420 483 36,000  Level Toronto Center
12:12PM 45.1500 -81.3667 302° West 420 483 36,000  Level Toronto Center
12:13PM 45.2333 -81.4833 315° West 430 495 36,000 180 Level Toronto Center
12:14PM 45.3000 -81.6000 309° West 430 495 36,400 480 Climbing Toronto Center
12:15PM 45.3833 -81.7500 308° West 420 483 37,000 600 Climbing Toronto Center
12:16PM 45.4667 -81.8667 316° Northwest 420 483 37,700 480 Climbing Toronto Center
12:17PM 45.5167 -81.9833 301° West 410 472 38,000 120 Climbing Toronto Center
12:18PM 45.6000 -82.1167 312° West 410 472 38,000  Level Toronto Center
12:19PM 45.6667 -82.2500 306° West 420 483 38,000  Level Toronto Center
12:20PM 45.7500 -82.3833 312° West 420 483 38,000  Level Toronto Center
12:21PM 45.8333 -82.5000 316° Northwest 430 495 38,000  Level Toronto Center
12:22PM 45.9000 -82.6500 303° West 440 506 38,000  Level Toronto Center
12:23PM 45.9667 -82.7833 306° West 440 506 38,000  Level Toronto Center
12:24PM 46.0500 -82.9167 312° West 440 506 38,000  Level Toronto Center
12:25PM 46.1333 -83.0500 312° West 440 506 38,000  Level Toronto Center
12:26PM 46.2167 -83.2000 309° West 440 506 38,000  Level Toronto Center
12:27PM 46.2833 -83.3167 310° West 450 518 38,000  Level Toronto Center
12:28PM 46.3667 -83.4667 309° West 450 518 38,000  Level Toronto Center
12:29PM 46.4500 -83.6167 309° West 450 518 38,000  Level Toronto Center
12:30PM 46.5167 -83.7500 306° West 440 506 38,000  Level Toronto Center
12:31PM 46.5833 -83.9000 303° West 440 506 38,000  Level Toronto Center
12:32PM 46.6667 -84.0333 312° West 430 495 38,000  Level Toronto Center
12:33PM 46.7500 -84.1833 309° West 430 495 38,000  Level Toronto Center
12:34PM 46.8000 -84.3167 299° West 440 506 38,000  Level Toronto Center
12:35PM 46.8833 -84.4667 309° West 440 506 38,000  Level Toronto Center
12:36PM 46.9667 -84.5833 316° Northwest 440 506 38,000  Level Toronto Center
12:37PM 47.0333 -84.7500 300° West 440 506 38,000  Level Toronto Center
12:38PM 47.1167 -84.8667 316° Northwest 440 506 38,000  Level Toronto Center
12:39PM 47.1833 -85.0333 301° West 430 495 38,000  Level Toronto Center
12:40PM 47.2500 -85.1667 306° West 430 495 38,000  Level Toronto Center
12:41PM 47.3333 -85.2833 317° Northwest 430 495 38,000  Level Toronto Center
12:42PM 47.3833 -85.4500 294° West 430 495 38,000  Level Toronto Center
12:43PM 47.4667 -85.5833 313° West 430 495 38,000  Level Toronto Center
12:44PM 47.5500 -85.7000 317° Northwest 430 495 38,000  Level Toronto Center
12:45PM 47.6000 -85.8333 299° West 430 495 38,000  Level Toronto Center
12:46PM 47.6833 -86.0000 307° West 430 495 38,000  Level Toronto Center
12:47PM 47.7500 -86.1333 307° West 430 495 38,000  Level Toronto Center
12:48PM 47.8333 -86.2833 310° West 430 495 38,000  Level Toronto Center
12:49PM 47.8833 -86.4167 299° West 420 483 38,000  Level Toronto Center
12:50PM 47.9667 -86.5500 313° West 420 483 38,000  Level Toronto Center
12:51PM 48.0167 -86.7167 294° West 420 483 38,000  Level Toronto Center
12:52PM 48.1000 -86.8500 313° West 430 495 38,000  Level Toronto Center
12:53PM 48.1667 -86.9833 307° West 430 495 38,000  Level Toronto Center
12:55PM 48.2500 -87.1333 310° West 420 483 38,000  Level Winnipeg Center
12:56PM 48.3167 -87.3000 301° West 420 483 38,000  Level Winnipeg Center
12:57PM 48.3833 -87.4333 307° West 420 483 38,000  Level Winnipeg Center
12:58PM 48.4667 -87.5500 317° Northwest 420 483 38,000  Level Winnipeg Center
12:59PM 48.5167 -87.7167 294° West 420 483 38,000  Level Winnipeg Center
01:00PM 48.5833 -87.8500 307° West 420 483 38,000  Level Winnipeg Center
01:01PM 48.6667 -87.9833 313° West 420 483 38,000  Level Winnipeg Center
01:02PM 48.7333 -88.1333 304° West 420 483 38,000  Level Winnipeg Center
01:03PM 48.7833 -88.3000 295° West 420 483 38,000  Level Winnipeg Center
01:04PM 48.8500 -88.4333 307° West 420 483 38,000  Level Winnipeg Center
01:05PM 48.9333 -88.5833 310° West 420 483 38,000  Level Winnipeg Center
01:06PM 48.9833 -88.7167 300° West 420 483 38,000  Level Winnipeg Center
01:07PM 49.0500 -88.8667 304° West 420 483 38,000  Level Winnipeg Center
01:08PM 49.1333 -89.0000 314° West 420 483 38,000  Level Winnipeg Center
01:09PM 49.1833 -89.1500 297° West 420 483 38,000  Level Winnipeg Center
01:10PM 49.2500 -89.3167 302° West 420 483 38,000  Level Winnipeg Center
01:11PM 49.3333 -89.4667 310° West 420 483 38,000  Level Winnipeg Center
01:12PM 49.3833 -89.6167 297° West 410 472 38,000  Level Winnipeg Center
01:13PM 49.4500 -89.7500 308° West 410 472 38,000  Level Winnipeg Center
01:14PM 49.5000 -89.9000 297° West 400 460 38,000  Level Winnipeg Center
01:15PM 49.5667 -90.0500 304° West 400 460 38,000  Level Winnipeg Center
01:16PM 49.6333 -90.2000 304° West 410 472 38,000  Level Winnipeg Center
01:17PM 49.7000 -90.3333 308° West 410 472 38,000  Level Winnipeg Center
01:18PM 49.7667 -90.4833 305° West 420 483 38,000  Level Winnipeg Center
01:19PM 49.8333 -90.6333 305° West 420 483 38,000  Level Winnipeg Center
01:20PM 49.9000 -90.7833 305° West 410 472 38,000  Level Winnipeg Center
01:21PM 49.9500 -90.9333 297° West 410 472 38,000  Level Winnipeg Center
01:22PM 50.0167 -91.0833 305° West 420 483 38,000  Level Winnipeg Center
01:23PM 50.0833 -91.2500 302° West 420 483 38,000  Level Winnipeg Center
01:24PM 50.1500 -91.4000 305° West 420 483 38,000  Level Winnipeg Center
01:25PM 50.2000 -91.5333 300° West 420 483 38,000  Level Winnipeg Center
01:26PM 50.2667 -91.7000 302° West 410 472 38,000  Level Winnipeg Center
01:27PM 50.3167 -91.8500 298° West 410 472 38,000  Level Winnipeg Center
01:28PM 50.3833 -92.0000 305° West 410 472 38,000  Level Winnipeg Center
01:29PM 50.4500 -92.1500 305° West 410 472 38,000  Level Winnipeg Center
01:30PM 50.5000 -92.3000 298° West 410 472 38,000  Level Winnipeg Center
01:31PM 50.5667 -92.4667 302° West 410 472 38,000  Level Winnipeg Center
01:32PM 50.6333 -92.6167 305° West 410 472 38,000  Level Winnipeg Center
01:33PM 50.6833 -92.7667 298° West 410 472 38,000  Level Winnipeg Center
01:34PM 50.7500 -92.9167 305° West 410 472 38,000  Level Winnipeg Center
01:35PM 50.8167 -93.0667 305° West 420 483 38,000  Level Winnipeg Center
01:36PM 50.8667 -93.2500 293° West 410 472 38,000  Level Winnipeg Center
01:37PM 50.9333 -93.4000 305° West 420 483 38,000  Level Winnipeg Center
01:38PM 50.9833 -93.5667 296° West 420 483 38,000  Level Winnipeg Center
01:39PM 51.0500 -93.7167 305° West 420 483 38,000  Level Winnipeg Center
01:40PM 51.1167 -93.8667 305° West 420 483 38,000  Level Winnipeg Center
01:41PM 51.1833 -94.0333 303° West 420 483 38,000  Level Winnipeg Center
01:42PM 51.2500 -94.1500 312° West 420 483 38,000  Level Winnipeg Center
01:43PM 51.3167 -94.3167 303° West 410 472 38,000  Level Winnipeg Center
01:44PM 51.3833 -94.4667 305° West 410 472 38,000  Level Winnipeg Center
01:45PM 51.4667 -94.6333 309° West 420 483 38,000  Level Winnipeg Center
01:46PM 51.5167 -94.7833 298° West 410 472 38,000  Level Winnipeg Center
01:47PM 51.5833 -94.9167 309° West 420 483 38,000  Level Winnipeg Center
01:48PM 51.6500 -95.0833 303° West 410 472 38,000  Level Winnipeg Center
01:49PM 51.7167 -95.2333 306° West 420 483 38,000  Level Winnipeg Center
01:50PM 51.7833 -95.4000 303° West 420 483 38,000  Level Winnipeg Center
01:51PM 51.8500 -95.5500 306° West 420 483 38,000  Level Winnipeg Center
01:52PM 51.9167 -95.6833 309° West 420 483 38,000  Level Winnipeg Center
01:53PM 51.9833 -95.8500 303° West 410 472 38,000  Level Winnipeg Center
01:54PM 52.0500 -96.0167 303° West 410 472 38,000  Level Winnipeg Center
01:55PM 52.1167 -96.1667 306° West 420 483 38,000  Level Winnipeg Center
01:56PM 52.1667 -96.3333 296° West 420 483 38,000  Level Winnipeg Center
01:57PM 52.2333 -96.5000 303° West 420 483 38,000  Level Winnipeg Center
01:58PM 52.3000 -96.6667 303° West 420 483 38,000  Level Winnipeg Center
01:59PM 52.3667 -96.8000 309° West 430 495 38,000  Level Winnipeg Center
02:00PM 52.4333 -96.9667 303° West 400 460 38,000  Level Winnipeg Center
02:01PM 52.5000 -97.1333 303° West 450 518 38,000  Level Winnipeg Center
02:02PM 52.5667 -97.3000 303° West 430 495 38,000  Level Winnipeg Center
02:03PM 52.6167 -97.4667 296° West 420 483 38,000  Level Winnipeg Center
02:04PM 52.6833 -97.6333 303° West 430 495 38,000  Level Winnipeg Center
02:05PM 52.7500 -97.8000 304° West 420 483 38,000  Level Winnipeg Center
02:06PM 52.8167 -97.9667 304° West 430 495 38,000  Level Winnipeg Center
02:07PM 52.8833 -98.1333 304° West 430 495 38,000  Level Winnipeg Center
02:08PM 52.9500 -98.2667 310° West 420 483 38,000  Level Winnipeg Center
02:09PM 53.0167 -98.4667 299° West 430 495 38,000  Level Winnipeg Center
02:10PM 53.0833 -98.6167 307° West 440 506 38,000  Level Winnipeg Center
02:11PM 53.1500 -98.8000 301° West 440 506 38,000  Level Winnipeg Center
02:12PM 53.2000 -98.9500 299° West 420 483 38,000  Level Winnipeg Center
02:13PM 53.2667 -99.1500 299° West 420 483 38,000  Level Winnipeg Center
02:14PM 53.3000 -99.2667 296° West 420 483 38,000  Level Edmonton Center
02:15PM 53.3667 -99.4333 304° West 430 495 38,000  Level Edmonton Center
02:16PM 53.4167 -99.6000 297° West 420 483 38,000  Level Edmonton Center
02:17PM 53.5000 -99.7833 307° West 430 495 38,000  Level Edmonton Center
02:18PM 53.5667 -99.9500 304° West 410 472 38,000  Level Edmonton Center
02:19PM 53.6167 -100.1167 297° West 420 483 38,000  Level Edmonton Center
02:20PM 53.6667 -100.2833 297° West 420 483 38,000  Level Edmonton Center
02:21PM 53.7333 -100.4333 307° West 420 483 38,000  Level Edmonton Center
02:22PM 53.7833 -100.6333 293° West 420 483 38,000  Level Edmonton Center
02:23PM 53.8667 -100.8500 303° West 440 506 38,000  Level Winnipeg Center
02:24PM 53.9333 -101.0333 302° West 430 495 38,000  Level Winnipeg Center
02:25PM 54.0000 -101.1833 307° West 440 506 38,000  Level Winnipeg Center
02:26PM 54.0833 -101.3667 308° West 450 518 38,000  Level Winnipeg Center
02:27PM 54.1667 -101.5333 311° West 440 506 38,000  Level Winnipeg Center
02:28PM 54.2333 -101.7000 304° West 440 506 38,100 360 Climbing Winnipeg Center
02:29PM 54.3167 -101.8667 311° West 440 506 38,800 660 Climbing Winnipeg Center
02:30PM 54.3500 -101.9667 300° West 430 495 39,400 600 Climbing Edmonton Center
02:31PM 54.4500 -102.1333 316° Northwest 420 483 40,000 300 Climbing Edmonton Center
02:32PM 54.5167 -102.3000 305° West 410 472 40,000  Level Edmonton Center
02:33PM 54.5833 -102.4500 308° West 420 483 40,000  Level Edmonton Center
02:34PM 54.6667 -102.6167 311° West 420 483 40,000  Level Edmonton Center
02:35PM 54.7333 -102.7667 308° West 420 483 40,000  Level Edmonton Center
02:36PM 54.8000 -102.9333 305° West 420 483 40,000  Level Edmonton Center
02:37PM 54.8667 -103.1000 305° West 420 483 40,000  Level Edmonton Center
02:38PM 54.9500 -103.2833 308° West 420 483 40,000  Level Edmonton Center
02:39PM 55.0167 -103.4333 308° West 420 483 40,000  Level Edmonton Center
02:40PM 55.0833 -103.6000 305° West 420 483 40,000  Level Edmonton Center
02:41PM 55.1500 -103.7833 303° West 420 483 40,000  Level Edmonton Center
02:42PM 55.2167 -103.9500 305° West 420 483 40,000  Level Edmonton Center
02:43PM 55.3000 -104.1000 314° West 430 495 40,000  Level Edmonton Center
02:44PM 55.3833 -104.2833 309° West 430 495 40,000  Level Edmonton Center
02:45PM 55.4500 -104.4500 305° West 430 495 40,000  Level Edmonton Center
02:46PM 55.5000 -104.6667 292° West 420 483 40,000  Level Edmonton Center
02:47PM 55.5500 -104.9000 291° West 430 495 40,000  Level Winnipeg Center
02:48PM 55.5833 -105.0833 288° West 430 495 40,000  Level Winnipeg Center
02:49PM 55.6500 -105.3167 297° West 430 495 40,000  Level Winnipeg Center
02:50PM 55.6833 -105.5000 288° West 440 506 40,000  Level Winnipeg Center
02:51PM 55.7333 -105.7167 292° West 440 506 40,000  Level Winnipeg Center
02:52PM 55.7667 -105.9000 288° West 440 506 40,000  Level Winnipeg Center
02:53PM 55.8000 -106.0500 292° West 430 495 40,000  Level Edmonton Center
02:54PM 55.8500 -106.2667 292° West 430 495 40,000  Level Edmonton Center
02:55PM 55.9000 -106.4667 294° West 430 495 40,000  Level Edmonton Center
02:56PM 55.9333 -106.6500 288° West 430 495 40,000  Level Edmonton Center
02:57PM 55.9667 -106.8667 285° West 430 495 40,000  Level Edmonton Center
02:58PM 56.0167 -107.0833 293° West 440 506 40,000  Level Edmonton Center
02:59PM 56.0500 -107.2667 288° West 440 506 40,000  Level Edmonton Center
03:00PM 56.1000 -107.5167 290° West 440 506 40,000  Level Edmonton Center
03:01PM 56.1500 -107.7000 296° West 440 506 40,000  Level Edmonton Center
03:02PM 56.1667 -107.9167 278° West 440 506 40,000  Level Edmonton Center
03:03PM 56.2167 -108.1333 293° West 430 495 40,000  Level Edmonton Center
03:04PM 56.2667 -108.3167 296° West 440 506 40,000  Level Edmonton Center
03:05PM 56.3000 -108.5333 286° West 440 506 40,000  Level Edmonton Center
03:06PM 56.3333 -108.7500 286° West 440 506 40,000  Level Edmonton Center
03:07PM 56.3833 -108.9667 293° West 440 506 40,000  Level Edmonton Center
03:08PM 56.4167 -109.1667 287° West 440 506 40,000  Level Edmonton Center
03:09PM 56.4667 -109.4500 288° West 450 518 40,000  Level Winnipeg Center
03:10PM 56.5167 -109.6500 294° West 450 518 40,000  Level Winnipeg Center
03:11PM 56.5333 -109.8167 280° West 440 506 40,000  Level Edmonton Center
03:12PM 56.5667 -110.0500 285° West 440 506 40,000  Level Edmonton Center
03:13PM 56.6000 -110.2333 288° West 440 506 40,000  Level Edmonton Center
03:14PM 56.6500 -110.4833 290° West 440 506 40,000  Level Edmonton Center
03:15PM 56.6833 -110.6833 287° West 450 518 40,000  Level Edmonton Center
03:16PM 56.7167 -110.9000 286° West 450 518 40,000  Level Edmonton Center
03:17PM 56.7500 -111.1167 286° West 450 518 40,000  Level Edmonton Center
03:18PM 56.7833 -111.3500 285° West 440 506 40,000  Level Edmonton Center
03:19PM 56.8333 -111.5667 293° West 440 506 40,000  Level Edmonton Center
03:20PM 56.8500 -111.8000 278° West 440 506 40,000  Level Edmonton Center
03:21PM 56.8833 -112.0167 286° West 450 518 40,000  Level Edmonton Center
03:22PM 56.9333 -112.2500 292° West 450 518 40,000  Level Edmonton Center
03:23PM 56.9667 -112.4667 286° West 450 518 40,000  Level Edmonton Center
03:24PM 57.0000 -112.7000 285° West 450 518 40,000  Level Edmonton Center
03:25PM 57.0333 -112.8833 289° West 450 518 40,000  Level Edmonton Center
03:26PM 57.0667 -113.1500 283° West 450 518 40,000  Level Edmonton Center
03:27PM 57.1000 -113.3500 287° West 450 518 40,000  Level Edmonton Center
03:28PM 57.1333 -113.6000 284° West 450 518 40,000  Level Edmonton Center
03:29PM 57.1500 -113.8000 279° West 450 518 40,000  Level Edmonton Center
03:30PM 57.1833 -114.0667 283° West 450 518 40,000  Level Edmonton Center
03:31PM 57.2167 -114.2500 289° West 450 518 40,000  Level Edmonton Center
03:32PM 57.2500 -114.4833 285° West 450 518 40,000  Level Edmonton Center
03:33PM 57.2833 -114.7500 283° West 450 518 40,000  Level Edmonton Center
03:34PM 57.3000 -114.9500 279° West 450 518 40,000  Level Edmonton Center
03:35PM 57.3333 -115.2000 284° West 460 529 40,000  Level Edmonton Center
03:36PM 57.3667 -115.4333 285° West 460 529 40,000  Level Edmonton Center
03:37PM 57.4000 -115.6667 285° West 460 529 40,000  Level Edmonton Center
03:38PM 57.4333 -115.9000 285° West 460 529 40,000  Level Edmonton Center
03:39PM 57.4500 -116.1333 278° West 460 529 40,000  Level Edmonton Center
03:40PM 57.4667 -116.3667 278° West 450 518 40,000  Level Edmonton Center
03:41PM 57.5000 -116.6000 285° West 460 529 40,000  Level Edmonton Center
03:42PM 57.5333 -116.8333 285° West 450 518 40,000  Level Edmonton Center
03:43PM 57.5667 -117.0667 285° West 460 529 40,000  Level Edmonton Center
03:44PM 57.5833 -117.3000 278° West 460 529 40,000  Level Edmonton Center
03:45PM 57.6167 -117.5333 285° West 460 529 40,000  Level Edmonton Center
03:46PM 57.6333 -117.7667 278° West 450 518 40,000  Level Edmonton Center
03:47PM 57.6500 -118.0333 277° West 450 518 40,000  Level Edmonton Center
03:48PM 57.6833 -118.2333 287° West 450 518 40,000  Level Edmonton Center
03:49PM 57.7000 -118.5000 277° West 450 518 40,000  Level Edmonton Center
03:50PM 57.7333 -118.7000 287° West 460 529 40,000  Level Edmonton Center
03:51PM 57.7500 -118.9333 278° West 450 518 40,000  Level Edmonton Center
03:52PM 57.7667 -119.1667 278° West 460 529 40,000  Level Edmonton Center
03:53PM 57.7833 -119.4000 278° West 460 529 40,000  Level Edmonton Center
03:54PM 57.8167 -119.6667 283° West 460 529 40,000  Level Edmonton Center
03:55PM 57.8333 -119.8833 278° West 450 518 40,000  Level Edmonton Center
03:56PM 57.8500 -120.1500 277° West 450 518 40,000  Level Edmonton Center
03:57PM 57.8833 -120.3500 287° West 450 518 40,000  Level Edmonton Center
03:58PM 57.8833 -120.6167 270° West 460 529 40,000  Level Edmonton Center
03:59PM 57.9167 -120.8333 286° West 450 518 40,000  Level Edmonton Center
04:00PM 57.9333 -121.1000 277° West 440 506 40,000  Level Edmonton Center
04:01PM 57.9500 -121.3000 279° West 460 529 40,000  Level Edmonton Center
04:02PM 57.9667 -121.5667 277° West 440 506 40,000  Level Edmonton Center
04:03PM 57.9833 -121.7667 279° West 450 518 40,000  Level Edmonton Center
04:04PM 58.0000 -122.0167 277° West 450 518 40,000  Level Edmonton Center
04:05PM 58.0167 -122.2500 278° West 440 506 40,000  Level Edmonton Center
04:06PM 58.0333 -122.5000 277° West 450 518 40,000  Level Edmonton Center
04:07PM 58.0500 -122.7333 278° West 440 506 40,000  Level Edmonton Center
04:08PM 58.0500 -122.9667 270° West 450 518 40,000  Level Edmonton Center
04:09PM 58.0667 -123.2000 278° West 440 506 40,000  Level Edmonton Center
04:10PM 58.0833 -123.4500 277° West 440 506 40,000  Level Edmonton Center
04:11PM 58.1000 -123.6833 278° West 460 529 40,000  Level Edmonton Center
04:12PM 58.1167 -123.9333 277° West 450 518 40,000  Level Edmonton Center
04:13PM 58.1167 -124.1333 270° West 440 506 40,000  Level Edmonton Center
04:14PM 58.1333 -124.4000 277° West 460 529 40,000  Level Edmonton Center
04:15PM 58.1500 -124.6167 278° West 450 518 40,000  Level Edmonton Center
04:16PM 58.1500 -124.8167 270° West 460 529 40,000 -660 Level Edmonton Center
04:18PM 58.1872 -125.2148 280° West  Level FlightAware Approximate
04:25PM 58.3003 -126.7510 274° West  Level FlightAware Approximate
04:26PM 58.3083 -126.9719 274° West  Level FlightAware Approximate
04:27PM 58.3160 -127.1929 274° West  Level FlightAware Approximate
04:28PM 58.3233 -127.4139 274° West  Level FlightAware Approximate
04:29PM 58.3302 -127.6351 273° West  Level FlightAware Approximate
04:30PM 58.3367 -127.8563 273° West  Level FlightAware Approximate
04:31PM 58.3429 -128.0777 273° West  Level FlightAware Approximate
04:32PM 58.3486 -128.2990 273° West  Level FlightAware Approximate
04:33PM 58.3540 -128.5205 273° West  Level FlightAware Approximate
04:34PM 58.3590 -128.7420 273° West  Level FlightAware Approximate
04:35PM 58.3636 -128.9636 272° West  Level FlightAware Approximate
04:36PM 58.3679 -129.1853 272° West  Level FlightAware Approximate
04:37PM 58.3717 -129.4070 272° West  Level FlightAware Approximate
04:38PM 58.3752 -129.6287 272° West  Level FlightAware Approximate
04:39PM 58.3783 -129.8505 272° West  Level FlightAware Approximate
04:40PM 58.3810 -130.0723 271° West  Level FlightAware Approximate
04:41PM 58.3833 -130.2941 271° West  Level FlightAware Approximate
04:42PM 58.3835 -130.5161 270° West  Level FlightAware Approximate
04:43PM 58.3838 -130.7379 270° West  Level FlightAware Approximate
04:44PM 58.3836 -130.9599 270° West  Level FlightAware Approximate
04:45PM 58.3834 -131.1818 270° West  Level FlightAware Approximate
04:46PM 58.3833 -131.4037 270° West  Level FlightAware Approximate
04:47PM 58.3834 -131.6256 270° West  Level FlightAware Approximate
04:48PM 58.3835 -131.8475 270° West  Level FlightAware Approximate
04:49PM 58.3835 -132.0694 270° West  Level FlightAware Approximate
04:50PM 58.3818 -132.2913 268° West  Level FlightAware Approximate
04:51PM 58.3602 -132.5131 260° West  Level FlightAware Approximate
04:52PM 58.3382 -132.7346 259° West  Level FlightAware Approximate
04:53PM 58.3334 -132.9689 270° West  Level FlightAware Approximate
04:54PM 58.3410 -133.1935 276° West  Level FlightAware Approximate
04:55PM 58.3500 -133.4181 270° West  Level FlightAware Approximate
04:56PM 58.3500 -133.6435 270° West  Level FlightAware Approximate
04:57PM 58.3501 -133.8690 270° West  Level FlightAware Approximate
04:57PM 58.2833 -134.4667 270° West 400 460 13,000  Level Anchorage Center
04:58PM 58.3500 -134.0944 270° West  Level FlightAware Approximate
04:58PM 58.2667 -134.6667 261° West 390 449 13,000  Level Anchorage Center
04:59PM 58.3500 -134.3199 270° West  Level FlightAware Approximate
04:59PM 58.2500 -134.8500 260° West 330 380 12,200  Level Anchorage Center
05:00PM 58.3500 -134.5453 270° West  Level FlightAware Approximate
05:00PM 58.2167 -135.0000 247° West 300 345 8,900  Level Anchorage Center
05:01PM 58.3500 -134.5667 270° West  Level FlightAware Approximate
05:01PM 58.2667 -135.0833 319° Northwest 280 322 6,400  Level Anchorage Center
05:02PM 58.3550 -134.5763 270° West  Level Estimated
05:02PM 58.3333 -135.0167 28° Northeast 240 276 4,100  Level Anchorage Center
05:03PM 58.3500 -134.5667 270° West  Level FlightAware Approximate
05:03PM 58.3500 -134.9167 72° East 230 265 2,800  Level Anchorage Center
05:04PM 58.3500 -134.8000 90° East 200 230 2,200 -480 Descending Anchorage Center
05:05PM 58.3500 -134.7000 90° East 200 230 1,900 -180 Descending Anchorage Center
05:06PM 58.3333 -134.6000 108° East 220 253 1,900 -180 Level Anchorage Center
05:07PM 58.3167 -134.5000 108° East 180 207 1,600 -300 Descending Anchorage Center